sensor_id;sensor_type;location;lat;lon;timestamp;P1;durP1;ratioP1;P2;durP2;ratioP2
32295;SDS011;18781;51.550;5.418;2023-05-20T00:00:15;10.88;;;3.80;;
32295;SDS011;18781;51.550;5.418;2023-05-20T00:02:41;8.95;;;3.30;;
32295;SDS011;18781;51.550;5.418;2023-05-20T00:05:06;18.35;;;4.18;;
32295;SDS011;18781;51.550;5.418;2023-05-20T00:07:32;7.07;;;3.35;;
32295;SDS011;18781;51.550;5.418;2023-05-20T00:09:58;14.45;;;3.90;;
32295;SDS011;18781;51.550;5.418;2023-05-20T00:12:23;11.70;;;3.30;;
32295;SDS011;18781;51.550;5.418;2023-05-20T00:14:49;9.90;;;3.70;;
32295;SDS011;18781;51.550;5.418;2023-05-20T00:17:15;13.23;;;4.00;;
32295;SDS011;18781;51.550;5.418;2023-05-20T00:19:40;11.63;;;3.90;;
32295;SDS011;18781;51.550;5.418;2023-05-20T00:22:07;8.80;;;3.40;;
32295;SDS011;18781;51.550;5.418;2023-05-20T00:24:32;11.90;;;3.75;;
32295;SDS011;18781;51.550;5.418;2023-05-20T00:26:58;10.80;;;3.65;;
32295;SDS011;18781;51.550;5.418;2023-05-20T00:29:23;10.85;;;3.50;;
32295;SDS011;18781;51.550;5.418;2023-05-20T00:31:49;10.73;;;4.07;;
32295;SDS011;18781;51.550;5.418;2023-05-20T00:34:14;10.52;;;3.80;;
32295;SDS011;18781;51.550;5.418;2023-05-20T00:36:40;12.65;;;4.20;;
32295;SDS011;18781;51.550;5.418;2023-05-20T00:39:06;12.60;;;3.70;;
32295;SDS011;18781;51.550;5.418;2023-05-20T00:41:32;11.93;;;3.70;;
32295;SDS011;18781;51.550;5.418;2023-05-20T00:43:58;8.90;;;3.35;;
32295;SDS011;18781;51.550;5.418;2023-05-20T00:46:23;15.77;;;4.18;;
32295;SDS011;18781;51.550;5.418;2023-05-20T00:48:52;10.33;;;3.90;;
32295;SDS011;18781;51.550;5.418;2023-05-20T00:51:17;11.73;;;4.05;;
32295;SDS011;18781;51.550;5.418;2023-05-20T00:53:44;14.38;;;4.55;;
32295;SDS011;18781;51.550;5.418;2023-05-20T00:56:11;13.68;;;4.25;;
32295;SDS011;18781;51.550;5.418;2023-05-20T00:58:36;11.73;;;3.83;;
32295;SDS011;18781;51.550;5.418;2023-05-20T01:01:02;11.27;;;3.92;;
32295;SDS011;18781;51.550;5.418;2023-05-20T01:03:28;15.00;;;4.20;;
32295;SDS011;18781;51.550;5.418;2023-05-20T01:05:54;9.80;;;3.97;;
32295;SDS011;18781;51.550;5.418;2023-05-20T01:08:20;15.25;;;4.30;;
32295;SDS011;18781;51.550;5.418;2023-05-20T01:10:48;11.15;;;4.47;;
32295;SDS011;18781;51.550;5.418;2023-05-20T01:13:19;9.68;;;4.05;;
32295;SDS011;18781;51.550;5.418;2023-05-20T01:15:47;16.42;;;4.50;;
32295;SDS011;18781;51.550;5.418;2023-05-20T01:18:16;18.73;;;4.78;;
32295;SDS011;18781;51.550;5.418;2023-05-20T01:20:48;15.18;;;4.68;;
32295;SDS011;18781;51.550;5.418;2023-05-20T01:23:15;10.23;;;3.85;;
32295;SDS011;18781;51.550;5.418;2023-05-20T01:25:41;12.32;;;4.47;;
32295;SDS011;18781;51.550;5.418;2023-05-20T01:28:06;11.60;;;4.25;;
32295;SDS011;18781;51.550;5.418;2023-05-20T01:30:34;11.45;;;4.50;;
32295;SDS011;18781;51.550;5.418;2023-05-20T01:33:06;13.20;;;4.47;;
32295;SDS011;18781;51.550;5.418;2023-05-20T01:35:34;12.50;;;3.90;;
32295;SDS011;18781;51.550;5.418;2023-05-20T01:38:00;11.48;;;4.20;;
32295;SDS011;18781;51.550;5.418;2023-05-20T01:40:28;14.43;;;4.50;;
32295;SDS011;18781;51.550;5.418;2023-05-20T01:42:54;8.38;;;4.22;;
32295;SDS011;18781;51.550;5.418;2023-05-20T01:45:22;19.25;;;5.03;;
32295;SDS011;18781;51.550;5.418;2023-05-20T01:47:49;12.57;;;5.00;;
32295;SDS011;18781;51.550;5.418;2023-05-20T01:50:15;10.93;;;4.75;;
32295;SDS011;18781;51.550;5.418;2023-05-20T01:52:40;14.15;;;4.68;;
32295;SDS011;18781;51.550;5.418;2023-05-20T01:55:06;12.15;;;4.60;;
32295;SDS011;18781;51.550;5.418;2023-05-20T01:57:32;13.50;;;5.10;;
32295;SDS011;18781;51.550;5.418;2023-05-20T01:59:57;21.50;;;5.38;;
32295;SDS011;18781;51.550;5.418;2023-05-20T02:02:23;14.10;;;4.70;;
32295;SDS011;18781;51.550;5.418;2023-05-20T02:04:50;11.32;;;4.43;;
32295;SDS011;18781;51.550;5.418;2023-05-20T02:07:16;12.57;;;4.82;;
32295;SDS011;18781;51.550;5.418;2023-05-20T02:09:42;12.30;;;4.97;;
32295;SDS011;18781;51.550;5.418;2023-05-20T02:12:08;13.48;;;4.78;;
32295;SDS011;18781;51.550;5.418;2023-05-20T02:14:40;11.27;;;4.88;;
32295;SDS011;18781;51.550;5.418;2023-05-20T02:17:06;15.93;;;5.05;;
32295;SDS011;18781;51.550;5.418;2023-05-20T02:19:32;12.52;;;4.85;;
32295;SDS011;18781;51.550;5.418;2023-05-20T02:21:57;12.50;;;5.13;;
32295;SDS011;18781;51.550;5.418;2023-05-20T02:24:23;12.38;;;4.65;;
32295;SDS011;18781;51.550;5.418;2023-05-20T02:26:48;11.30;;;4.70;;
32295;SDS011;18781;51.550;5.418;2023-05-20T02:29:15;10.65;;;4.90;;
32295;SDS011;18781;51.550;5.418;2023-05-20T02:31:41;13.88;;;5.03;;
32295;SDS011;18781;51.550;5.418;2023-05-20T02:34:06;16.67;;;5.38;;
32295;SDS011;18781;51.550;5.418;2023-05-20T02:36:32;14.85;;;5.05;;
32295;SDS011;18781;51.550;5.418;2023-05-20T02:38:58;11.02;;;5.00;;
32295;SDS011;18781;51.550;5.418;2023-05-20T02:41:25;14.07;;;5.25;;
32295;SDS011;18781;51.550;5.418;2023-05-20T02:43:50;13.32;;;5.03;;
32295;SDS011;18781;51.550;5.418;2023-05-20T02:46:16;9.60;;;4.90;;
32295;SDS011;18781;51.550;5.418;2023-05-20T02:48:43;14.68;;;5.53;;
32295;SDS011;18781;51.550;5.418;2023-05-20T02:51:09;16.70;;;5.13;;
32295;SDS011;18781;51.550;5.418;2023-05-20T02:53:35;16.27;;;5.53;;
32295;SDS011;18781;51.550;5.418;2023-05-20T02:56:02;10.85;;;5.00;;
32295;SDS011;18781;51.550;5.418;2023-05-20T02:58:28;17.77;;;5.38;;
32295;SDS011;18781;51.550;5.418;2023-05-20T03:00:54;14.02;;;5.43;;
32295;SDS011;18781;51.550;5.418;2023-05-20T03:03:21;9.18;;;4.78;;
32295;SDS011;18781;51.550;5.418;2023-05-20T03:05:47;11.63;;;5.03;;
32295;SDS011;18781;51.550;5.418;2023-05-20T03:08:14;11.23;;;5.40;;
32295;SDS011;18781;51.550;5.418;2023-05-20T03:10:39;12.32;;;4.95;;
32295;SDS011;18781;51.550;5.418;2023-05-20T03:13:05;10.60;;;4.82;;
32295;SDS011;18781;51.550;5.418;2023-05-20T03:15:39;13.95;;;5.65;;
32295;SDS011;18781;51.550;5.418;2023-05-20T03:18:06;11.80;;;5.18;;
32295;SDS011;18781;51.550;5.418;2023-05-20T03:20:34;16.08;;;5.32;;
32295;SDS011;18781;51.550;5.418;2023-05-20T03:23:01;13.18;;;5.68;;
32295;SDS011;18781;51.550;5.418;2023-05-20T03:25:27;12.55;;;5.32;;
32295;SDS011;18781;51.550;5.418;2023-05-20T03:27:53;16.30;;;5.15;;
32295;SDS011;18781;51.550;5.418;2023-05-20T03:30:19;14.18;;;5.70;;
32295;SDS011;18781;51.550;5.418;2023-05-20T03:32:45;12.38;;;5.70;;
32295;SDS011;18781;51.550;5.418;2023-05-20T03:35:10;12.73;;;5.18;;
32295;SDS011;18781;51.550;5.418;2023-05-20T03:37:36;12.07;;;5.32;;
32295;SDS011;18781;51.550;5.418;2023-05-20T03:40:02;13.90;;;5.53;;
32295;SDS011;18781;51.550;5.418;2023-05-20T03:42:31;15.13;;;5.43;;
32295;SDS011;18781;51.550;5.418;2023-05-20T03:44:57;10.55;;;5.32;;
32295;SDS011;18781;51.550;5.418;2023-05-20T03:47:24;15.65;;;6.07;;
32295;SDS011;18781;51.550;5.418;2023-05-20T03:49:50;14.57;;;5.22;;
32295;SDS011;18781;51.550;5.418;2023-05-20T03:52:15;17.00;;;5.63;;
32295;SDS011;18781;51.550;5.418;2023-05-20T03:54:41;14.80;;;5.47;;
32295;SDS011;18781;51.550;5.418;2023-05-20T03:57:06;12.40;;;5.32;;
32295;SDS011;18781;51.550;5.418;2023-05-20T03:59:34;11.68;;;5.40;;
32295;SDS011;18781;51.550;5.418;2023-05-20T04:02:00;10.85;;;5.70;;
32295;SDS011;18781;51.550;5.418;2023-05-20T04:04:26;12.65;;;5.70;;
32295;SDS011;18781;51.550;5.418;2023-05-20T04:06:52;15.30;;;5.93;;
32295;SDS011;18781;51.550;5.418;2023-05-20T04:09:18;14.27;;;5.78;;
32295;SDS011;18781;51.550;5.418;2023-05-20T04:11:44;13.30;;;5.90;;
32295;SDS011;18781;51.550;5.418;2023-05-20T04:14:10;14.63;;;5.57;;
32295;SDS011;18781;51.550;5.418;2023-05-20T04:16:35;13.52;;;5.88;;
32295;SDS011;18781;51.550;5.418;2023-05-20T04:19:01;11.93;;;5.53;;
32295;SDS011;18781;51.550;5.418;2023-05-20T04:21:27;17.17;;;5.80;;
32295;SDS011;18781;51.550;5.418;2023-05-20T04:23:53;12.10;;;5.10;;
32295;SDS011;18781;51.550;5.418;2023-05-20T04:26:19;18.50;;;5.75;;
32295;SDS011;18781;51.550;5.418;2023-05-20T04:28:44;20.08;;;6.13;;
32295;SDS011;18781;51.550;5.418;2023-05-20T04:31:13;17.48;;;6.00;;
32295;SDS011;18781;51.550;5.418;2023-05-20T04:33:39;10.35;;;5.07;;
32295;SDS011;18781;51.550;5.418;2023-05-20T04:36:05;12.68;;;5.78;;
32295;SDS011;18781;51.550;5.418;2023-05-20T04:38:31;10.63;;;5.35;;
32295;SDS011;18781;51.550;5.418;2023-05-20T04:41:00;13.55;;;6.47;;
32295;SDS011;18781;51.550;5.418;2023-05-20T04:43:26;15.95;;;5.82;;
32295;SDS011;18781;51.550;5.418;2023-05-20T04:45:55;16.52;;;6.10;;
32295;SDS011;18781;51.550;5.418;2023-05-20T04:48:21;12.60;;;6.15;;
32295;SDS011;18781;51.550;5.418;2023-05-20T04:50:47;17.55;;;6.38;;
32295;SDS011;18781;51.550;5.418;2023-05-20T04:53:14;13.45;;;5.70;;
32295;SDS011;18781;51.550;5.418;2023-05-20T04:55:40;13.02;;;5.70;;
32295;SDS011;18781;51.550;5.418;2023-05-20T04:58:07;15.60;;;5.60;;
32295;SDS011;18781;51.550;5.418;2023-05-20T05:00:39;16.27;;;6.10;;
32295;SDS011;18781;51.550;5.418;2023-05-20T05:03:05;13.90;;;6.60;;
32295;SDS011;18781;51.550;5.418;2023-05-20T05:05:31;14.55;;;5.65;;
32295;SDS011;18781;51.550;5.418;2023-05-20T05:07:58;14.85;;;5.85;;
32295;SDS011;18781;51.550;5.418;2023-05-20T05:10:23;20.17;;;6.78;;
32295;SDS011;18781;51.550;5.418;2023-05-20T05:12:49;19.00;;;6.25;;
32295;SDS011;18781;51.550;5.418;2023-05-20T05:15:15;12.90;;;6.20;;
32295;SDS011;18781;51.550;5.418;2023-05-20T05:17:40;14.80;;;6.25;;
32295;SDS011;18781;51.550;5.418;2023-05-20T05:20:06;13.23;;;5.60;;
32295;SDS011;18781;51.550;5.418;2023-05-20T05:22:32;15.23;;;6.18;;
32295;SDS011;18781;51.550;5.418;2023-05-20T05:25:01;14.50;;;5.95;;
32295;SDS011;18781;51.550;5.418;2023-05-20T05:27:27;10.27;;;6.32;;
32295;SDS011;18781;51.550;5.418;2023-05-20T05:29:53;13.45;;;6.25;;
32295;SDS011;18781;51.550;5.418;2023-05-20T05:32:18;14.32;;;6.18;;
32295;SDS011;18781;51.550;5.418;2023-05-20T05:34:44;16.60;;;6.03;;
32295;SDS011;18781;51.550;5.418;2023-05-20T05:37:10;15.25;;;5.97;;
32295;SDS011;18781;51.550;5.418;2023-05-20T05:39:36;13.27;;;6.22;;
32295;SDS011;18781;51.550;5.418;2023-05-20T05:42:02;18.20;;;6.28;;
32295;SDS011;18781;51.550;5.418;2023-05-20T05:44:28;12.27;;;5.40;;
32295;SDS011;18781;51.550;5.418;2023-05-20T05:46:53;20.17;;;6.22;;
32295;SDS011;18781;51.550;5.418;2023-05-20T05:49:19;10.35;;;5.57;;
32295;SDS011;18781;51.550;5.418;2023-05-20T05:51:44;16.17;;;6.18;;
32295;SDS011;18781;51.550;5.418;2023-05-20T05:54:10;13.32;;;6.25;;
32295;SDS011;18781;51.550;5.418;2023-05-20T05:56:35;16.08;;;5.82;;
32295;SDS011;18781;51.550;5.418;2023-05-20T05:59:01;12.52;;;5.70;;
32295;SDS011;18781;51.550;5.418;2023-05-20T06:01:27;11.32;;;5.65;;
32295;SDS011;18781;51.550;5.418;2023-05-20T06:03:52;12.82;;;5.70;;
32295;SDS011;18781;51.550;5.418;2023-05-20T06:06:18;12.27;;;5.88;;
32295;SDS011;18781;51.550;5.418;2023-05-20T06:08:43;17.83;;;6.20;;
32295;SDS011;18781;51.550;5.418;2023-05-20T06:11:09;14.38;;;5.93;;
32295;SDS011;18781;51.550;5.418;2023-05-20T06:13:35;13.90;;;5.50;;
32295;SDS011;18781;51.550;5.418;2023-05-20T06:16:00;10.57;;;5.45;;
32295;SDS011;18781;51.550;5.418;2023-05-20T06:18:26;14.40;;;5.63;;
32295;SDS011;18781;51.550;5.418;2023-05-20T06:20:55;11.13;;;5.28;;
32295;SDS011;18781;51.550;5.418;2023-05-20T06:23:21;9.93;;;5.57;;
32295;SDS011;18781;51.550;5.418;2023-05-20T06:25:47;13.95;;;5.65;;
32295;SDS011;18781;51.550;5.418;2023-05-20T06:28:13;11.05;;;5.57;;
32295;SDS011;18781;51.550;5.418;2023-05-20T06:30:40;12.35;;;5.47;;
32295;SDS011;18781;51.550;5.418;2023-05-20T06:33:05;12.85;;;5.65;;
32295;SDS011;18781;51.550;5.418;2023-05-20T06:35:31;8.18;;;5.40;;
32295;SDS011;18781;51.550;5.418;2023-05-20T06:37:59;13.95;;;6.10;;
32295;SDS011;18781;51.550;5.418;2023-05-20T06:40:26;14.07;;;5.63;;
32295;SDS011;18781;51.550;5.418;2023-05-20T06:42:52;15.13;;;5.63;;
32295;SDS011;18781;51.550;5.418;2023-05-20T06:45:18;18.52;;;5.93;;
32295;SDS011;18781;51.550;5.418;2023-05-20T06:47:43;13.05;;;5.40;;
32295;SDS011;18781;51.550;5.418;2023-05-20T06:50:09;12.15;;;5.40;;
32295;SDS011;18781;51.550;5.418;2023-05-20T06:52:36;10.25;;;5.35;;
32295;SDS011;18781;51.550;5.418;2023-05-20T06:55:02;11.48;;;5.38;;
32295;SDS011;18781;51.550;5.418;2023-05-20T06:57:28;10.88;;;5.43;;
32295;SDS011;18781;51.550;5.418;2023-05-20T06:59:53;12.57;;;5.20;;
32295;SDS011;18781;51.550;5.418;2023-05-20T07:02:20;14.27;;;5.18;;
32295;SDS011;18781;51.550;5.418;2023-05-20T07:04:46;13.15;;;5.45;;
32295;SDS011;18781;51.550;5.418;2023-05-20T07:07:12;13.20;;;5.75;;
32295;SDS011;18781;51.550;5.418;2023-05-20T07:09:37;10.30;;;4.68;;
32295;SDS011;18781;51.550;5.418;2023-05-20T07:12:03;10.27;;;5.15;;
32295;SDS011;18781;51.550;5.418;2023-05-20T07:14:29;9.23;;;5.00;;
32295;SDS011;18781;51.550;5.418;2023-05-20T07:16:54;11.98;;;4.80;;
32295;SDS011;18781;51.550;5.418;2023-05-20T07:19:20;11.63;;;4.70;;
32295;SDS011;18781;51.550;5.418;2023-05-20T07:21:45;11.13;;;5.10;;
32295;SDS011;18781;51.550;5.418;2023-05-20T07:24:11;12.13;;;4.63;;
32295;SDS011;18781;51.550;5.418;2023-05-20T07:26:36;7.28;;;4.00;;
32295;SDS011;18781;51.550;5.418;2023-05-20T07:29:02;12.27;;;4.43;;
32295;SDS011;18781;51.550;5.418;2023-05-20T07:31:28;11.63;;;4.35;;
32295;SDS011;18781;51.550;5.418;2023-05-20T07:33:55;8.00;;;4.40;;
32295;SDS011;18781;51.550;5.418;2023-05-20T07:36:21;16.10;;;4.20;;
32295;SDS011;18781;51.550;5.418;2023-05-20T07:38:46;10.90;;;4.35;;
32295;SDS011;18781;51.550;5.418;2023-05-20T07:41:12;11.25;;;4.07;;
32295;SDS011;18781;51.550;5.418;2023-05-20T07:43:37;11.60;;;4.28;;
32295;SDS011;18781;51.550;5.418;2023-05-20T07:46:03;13.38;;;4.40;;
32295;SDS011;18781;51.550;5.418;2023-05-20T07:48:29;8.32;;;3.75;;
32295;SDS011;18781;51.550;5.418;2023-05-20T07:50:54;11.18;;;4.18;;
32295;SDS011;18781;51.550;5.418;2023-05-20T07:53:24;10.77;;;4.00;;
32295;SDS011;18781;51.550;5.418;2023-05-20T07:55:49;10.05;;;4.43;;
32295;SDS011;18781;51.550;5.418;2023-05-20T07:58:15;9.75;;;4.45;;
32295;SDS011;18781;51.550;5.418;2023-05-20T08:00:41;8.85;;;4.25;;
32295;SDS011;18781;51.550;5.418;2023-05-20T08:03:07;10.55;;;3.97;;
32295;SDS011;18781;51.550;5.418;2023-05-20T08:05:35;13.93;;;4.10;;
32295;SDS011;18781;51.550;5.418;2023-05-20T08:08:01;13.60;;;4.00;;
32295;SDS011;18781;51.550;5.418;2023-05-20T08:10:27;8.65;;;3.75;;
32295;SDS011;18781;51.550;5.418;2023-05-20T08:12:52;9.45;;;3.88;;
32295;SDS011;18781;51.550;5.418;2023-05-20T08:15:18;10.93;;;4.35;;
32295;SDS011;18781;51.550;5.418;2023-05-20T08:17:43;11.15;;;3.80;;
32295;SDS011;18781;51.550;5.418;2023-05-20T08:20:09;8.05;;;4.18;;
32295;SDS011;18781;51.550;5.418;2023-05-20T08:22:36;10.75;;;4.07;;
32295;SDS011;18781;51.550;5.418;2023-05-20T08:25:02;6.55;;;3.60;;
32295;SDS011;18781;51.550;5.418;2023-05-20T08:27:28;11.38;;;4.03;;
32295;SDS011;18781;51.550;5.418;2023-05-20T08:29:54;8.07;;;3.97;;
32295;SDS011;18781;51.550;5.418;2023-05-20T08:32:20;8.98;;;3.78;;
32295;SDS011;18781;51.550;5.418;2023-05-20T08:34:45;7.93;;;4.22;;
32295;SDS011;18781;51.550;5.418;2023-05-20T08:37:13;8.30;;;4.05;;
32295;SDS011;18781;51.550;5.418;2023-05-20T08:39:38;8.75;;;4.18;;
32295;SDS011;18781;51.550;5.418;2023-05-20T08:42:04;6.75;;;3.83;;
32295;SDS011;18781;51.550;5.418;2023-05-20T08:44:31;9.05;;;4.22;;
32295;SDS011;18781;51.550;5.418;2023-05-20T08:46:58;11.10;;;4.25;;
32295;SDS011;18781;51.550;5.418;2023-05-20T08:49:25;6.85;;;3.90;;
32295;SDS011;18781;51.550;5.418;2023-05-20T08:51:50;13.20;;;4.03;;
32295;SDS011;18781;51.550;5.418;2023-05-20T08:54:16;9.65;;;4.30;;
32295;SDS011;18781;51.550;5.418;2023-05-20T08:56:44;14.45;;;4.30;;
32295;SDS011;18781;51.550;5.418;2023-05-20T08:59:10;9.60;;;3.67;;
32295;SDS011;18781;51.550;5.418;2023-05-20T09:01:38;8.73;;;3.75;;
32295;SDS011;18781;51.550;5.418;2023-05-20T09:04:07;12.63;;;3.78;;
32295;SDS011;18781;51.550;5.418;2023-05-20T09:06:46;7.15;;;3.47;;
32295;SDS011;18781;51.550;5.418;2023-05-20T09:09:12;8.98;;;3.90;;
32295;SDS011;18781;51.550;5.418;2023-05-20T09:11:38;7.10;;;3.67;;
32295;SDS011;18781;51.550;5.418;2023-05-20T09:14:05;15.40;;;3.65;;
32295;SDS011;18781;51.550;5.418;2023-05-20T09:16:31;8.68;;;3.28;;
32295;SDS011;18781;51.550;5.418;2023-05-20T09:18:57;10.38;;;3.50;;
32295;SDS011;18781;51.550;5.418;2023-05-20T09:21:26;6.45;;;3.60;;
32295;SDS011;18781;51.550;5.418;2023-05-20T09:23:52;9.43;;;3.40;;
32295;SDS011;18781;51.550;5.418;2023-05-20T09:26:21;8.38;;;3.30;;
32295;SDS011;18781;51.550;5.418;2023-05-20T09:28:47;9.63;;;3.78;;
32295;SDS011;18781;51.550;5.418;2023-05-20T09:31:13;10.32;;;3.58;;
32295;SDS011;18781;51.550;5.418;2023-05-20T09:33:39;7.10;;;3.45;;
32295;SDS011;18781;51.550;5.418;2023-05-20T09:36:08;8.80;;;3.05;;
32295;SDS011;18781;51.550;5.418;2023-05-20T09:38:37;9.60;;;3.08;;
32295;SDS011;18781;51.550;5.418;2023-05-20T09:41:09;7.25;;;3.95;;
32295;SDS011;18781;51.550;5.418;2023-05-20T09:43:39;8.57;;;3.83;;
32295;SDS011;18781;51.550;5.418;2023-05-20T09:46:05;12.10;;;3.97;;
32295;SDS011;18781;51.550;5.418;2023-05-20T09:48:32;13.77;;;4.20;;
32295;SDS011;18781;51.550;5.418;2023-05-20T09:51:03;5.80;;;3.80;;
32295;SDS011;18781;51.550;5.418;2023-05-20T09:53:29;8.55;;;3.95;;
32295;SDS011;18781;51.550;5.418;2023-05-20T09:55:55;10.57;;;3.75;;
32295;SDS011;18781;51.550;5.418;2023-05-20T09:58:22;5.88;;;3.58;;
32295;SDS011;18781;51.550;5.418;2023-05-20T10:00:49;8.43;;;4.03;;
32295;SDS011;18781;51.550;5.418;2023-05-20T10:03:15;12.65;;;3.70;;
32295;SDS011;18781;51.550;5.418;2023-05-20T10:05:44;8.55;;;3.88;;
32295;SDS011;18781;51.550;5.418;2023-05-20T10:11:37;9.07;;;3.83;;
32295;SDS011;18781;51.550;5.418;2023-05-20T10:17:02;10.20;;;3.65;;
32295;SDS011;18781;51.550;5.418;2023-05-20T10:19:34;7.68;;;3.55;;
32295;SDS011;18781;51.550;5.418;2023-05-20T10:22:01;9.20;;;3.70;;
32295;SDS011;18781;51.550;5.418;2023-05-20T10:24:38;6.32;;;3.65;;
32295;SDS011;18781;51.550;5.418;2023-05-20T10:27:08;4.55;;;2.85;;
32295;SDS011;18781;51.550;5.418;2023-05-20T10:32:08;8.68;;;3.78;;
32295;SDS011;18781;51.550;5.418;2023-05-20T10:34:43;5.38;;;3.38;;
32295;SDS011;18781;51.550;5.418;2023-05-20T10:37:20;9.93;;;3.47;;
32295;SDS011;18781;51.550;5.418;2023-05-20T10:40:10;7.45;;;3.80;;
32295;SDS011;18781;51.550;5.418;2023-05-20T10:42:39;5.60;;;3.45;;
32295;SDS011;18781;51.550;5.418;2023-05-20T10:45:06;9.55;;;3.90;;
32295;SDS011;18781;51.550;5.418;2023-05-20T10:47:33;6.85;;;3.25;;
32295;SDS011;18781;51.550;5.418;2023-05-20T10:49:59;9.77;;;3.65;;
32295;SDS011;18781;51.550;5.418;2023-05-20T10:52:26;8.50;;;3.70;;
32295;SDS011;18781;51.550;5.418;2023-05-20T10:59:48;5.88;;;3.33;;
32295;SDS011;18781;51.550;5.418;2023-05-20T11:02:15;8.40;;;3.75;;
32295;SDS011;18781;51.550;5.418;2023-05-20T11:04:41;6.03;;;3.50;;
32295;SDS011;18781;51.550;5.418;2023-05-20T11:07:08;7.28;;;3.63;;
32295;SDS011;18781;51.550;5.418;2023-05-20T11:09:34;6.95;;;3.67;;
32295;SDS011;18781;51.550;5.418;2023-05-20T11:12:00;7.00;;;3.28;;
32295;SDS011;18781;51.550;5.418;2023-05-20T11:14:29;12.60;;;4.00;;
32295;SDS011;18781;51.550;5.418;2023-05-20T11:19:24;7.65;;;3.83;;
32295;SDS011;18781;51.550;5.418;2023-05-20T11:21:50;8.48;;;3.28;;
32295;SDS011;18781;51.550;5.418;2023-05-20T11:24:23;7.38;;;3.90;;
32295;SDS011;18781;51.550;5.418;2023-05-20T11:26:50;6.63;;;3.38;;
32295;SDS011;18781;51.550;5.418;2023-05-20T11:29:16;6.68;;;3.40;;
32295;SDS011;18781;51.550;5.418;2023-05-20T11:31:43;6.60;;;3.40;;
32295;SDS011;18781;51.550;5.418;2023-05-20T11:34:11;7.45;;;3.35;;
32295;SDS011;18781;51.550;5.418;2023-05-20T11:36:40;7.40;;;3.33;;
32295;SDS011;18781;51.550;5.418;2023-05-20T11:39:08;9.00;;;3.25;;
32295;SDS011;18781;51.550;5.418;2023-05-20T11:41:35;12.47;;;3.20;;
32295;SDS011;18781;51.550;5.418;2023-05-20T11:44:00;6.75;;;3.28;;
32295;SDS011;18781;51.550;5.418;2023-05-20T11:46:26;8.55;;;3.13;;
32295;SDS011;18781;51.550;5.418;2023-05-20T11:48:52;4.95;;;2.70;;
32295;SDS011;18781;51.550;5.418;2023-05-20T11:51:21;6.15;;;3.50;;
32295;SDS011;18781;51.550;5.418;2023-05-20T11:54:03;5.25;;;2.83;;
32295;SDS011;18781;51.550;5.418;2023-05-20T11:56:34;5.97;;;3.10;;
32295;SDS011;18781;51.550;5.418;2023-05-20T11:59:01;13.63;;;3.53;;
32295;SDS011;18781;51.550;5.418;2023-05-20T12:01:31;6.35;;;2.70;;
32295;SDS011;18781;51.550;5.418;2023-05-20T12:03:58;7.90;;;3.50;;
32295;SDS011;18781;51.550;5.418;2023-05-20T12:06:23;4.88;;;3.35;;
32295;SDS011;18781;51.550;5.418;2023-05-20T12:08:49;7.68;;;3.10;;
32295;SDS011;18781;51.550;5.418;2023-05-20T12:11:15;7.60;;;2.80;;
32295;SDS011;18781;51.550;5.418;2023-05-20T12:13:41;6.85;;;3.13;;
32295;SDS011;18781;51.550;5.418;2023-05-20T12:16:06;5.20;;;3.00;;
32295;SDS011;18781;51.550;5.418;2023-05-20T12:18:32;6.55;;;3.17;;
32295;SDS011;18781;51.550;5.418;2023-05-20T12:20:58;6.18;;;3.70;;
32295;SDS011;18781;51.550;5.418;2023-05-20T12:23:24;7.90;;;3.58;;
32295;SDS011;18781;51.550;5.418;2023-05-20T12:25:50;7.97;;;3.42;;
32295;SDS011;18781;51.550;5.418;2023-05-20T12:28:15;6.07;;;3.00;;
32295;SDS011;18781;51.550;5.418;2023-05-20T12:30:41;7.90;;;2.95;;
32295;SDS011;18781;51.550;5.418;2023-05-20T12:33:07;8.38;;;2.83;;
32295;SDS011;18781;51.550;5.418;2023-05-20T12:35:37;7.35;;;3.08;;
32295;SDS011;18781;51.550;5.418;2023-05-20T12:38:04;5.50;;;3.35;;
32295;SDS011;18781;51.550;5.418;2023-05-20T12:40:31;5.07;;;3.42;;
32295;SDS011;18781;51.550;5.418;2023-05-20T12:42:57;5.03;;;2.97;;
32295;SDS011;18781;51.550;5.418;2023-05-20T12:45:24;4.55;;;3.10;;
32295;SDS011;18781;51.550;5.418;2023-05-20T12:47:50;6.30;;;2.97;;
32295;SDS011;18781;51.550;5.418;2023-05-20T12:50:15;16.25;;;4.28;;
32295;SDS011;18781;51.550;5.418;2023-05-20T12:52:41;12.25;;;4.00;;
32295;SDS011;18781;51.550;5.418;2023-05-20T12:55:07;9.20;;;3.53;;
32295;SDS011;18781;51.550;5.418;2023-05-20T12:57:38;36.08;;;6.82;;
32295;SDS011;18781;51.550;5.418;2023-05-20T13:00:05;32.80;;;6.28;;
32295;SDS011;18781;51.550;5.418;2023-05-20T13:02:32;7.47;;;3.22;;
32295;SDS011;18781;51.550;5.418;2023-05-20T13:04:57;6.53;;;3.22;;
32295;SDS011;18781;51.550;5.418;2023-05-20T13:07:23;6.43;;;3.20;;
32295;SDS011;18781;51.550;5.418;2023-05-20T13:09:50;7.97;;;3.65;;
32295;SDS011;18781;51.550;5.418;2023-05-20T13:12:16;7.22;;;3.33;;
32295;SDS011;18781;51.550;5.418;2023-05-20T13:14:42;6.63;;;3.38;;
32295;SDS011;18781;51.550;5.418;2023-05-20T13:17:07;8.90;;;3.38;;
32295;SDS011;18781;51.550;5.418;2023-05-20T13:19:33;9.63;;;3.35;;
32295;SDS011;18781;51.550;5.418;2023-05-20T13:21:59;5.60;;;3.08;;
32295;SDS011;18781;51.550;5.418;2023-05-20T13:24:24;6.70;;;3.78;;
32295;SDS011;18781;51.550;5.418;2023-05-20T13:26:50;5.25;;;2.95;;
32295;SDS011;18781;51.550;5.418;2023-05-20T13:29:16;7.10;;;3.05;;
32295;SDS011;18781;51.550;5.418;2023-05-20T13:31:41;8.23;;;3.15;;
32295;SDS011;18781;51.550;5.418;2023-05-20T13:34:07;4.38;;;2.65;;
32295;SDS011;18781;51.550;5.418;2023-05-20T13:36:33;4.28;;;2.80;;
32295;SDS011;18781;51.550;5.418;2023-05-20T13:38:59;6.93;;;2.90;;
32295;SDS011;18781;51.550;5.418;2023-05-20T13:41:24;5.68;;;2.70;;
32295;SDS011;18781;51.550;5.418;2023-05-20T13:43:50;7.47;;;3.10;;
32295;SDS011;18781;51.550;5.418;2023-05-20T13:46:16;6.45;;;2.80;;
32295;SDS011;18781;51.550;5.418;2023-05-20T13:48:43;6.13;;;2.72;;
32295;SDS011;18781;51.550;5.418;2023-05-20T13:51:08;5.75;;;2.70;;
32295;SDS011;18781;51.550;5.418;2023-05-20T13:53:34;6.95;;;2.90;;
32295;SDS011;18781;51.550;5.418;2023-05-20T13:56:00;6.30;;;3.28;;
32295;SDS011;18781;51.550;5.418;2023-05-20T13:58:25;7.43;;;2.90;;
32295;SDS011;18781;51.550;5.418;2023-05-20T14:00:52;7.45;;;2.95;;
32295;SDS011;18781;51.550;5.418;2023-05-20T14:03:18;3.75;;;2.65;;
32295;SDS011;18781;51.550;5.418;2023-05-20T14:05:44;6.07;;;2.53;;
32295;SDS011;18781;51.550;5.418;2023-05-20T14:08:10;8.98;;;3.40;;
32295;SDS011;18781;51.550;5.418;2023-05-20T14:10:36;7.55;;;2.92;;
32295;SDS011;18781;51.550;5.418;2023-05-20T14:13:02;6.47;;;3.10;;
32295;SDS011;18781;51.550;5.418;2023-05-20T14:15:28;6.65;;;3.08;;
32295;SDS011;18781;51.550;5.418;2023-05-20T14:17:55;8.60;;;3.13;;
32295;SDS011;18781;51.550;5.418;2023-05-20T14:20:24;4.90;;;2.65;;
32295;SDS011;18781;51.550;5.418;2023-05-20T14:22:50;15.15;;;3.00;;
32295;SDS011;18781;51.550;5.418;2023-05-20T14:25:16;5.13;;;2.97;;
32295;SDS011;18781;51.550;5.418;2023-05-20T14:27:42;5.80;;;3.00;;
32295;SDS011;18781;51.550;5.418;2023-05-20T14:30:08;5.75;;;2.80;;
32295;SDS011;18781;51.550;5.418;2023-05-20T14:32:33;5.10;;;3.05;;
32295;SDS011;18781;51.550;5.418;2023-05-20T14:34:59;30.75;;;16.25;;
32295;SDS011;18781;51.550;5.418;2023-05-20T14:37:25;8.27;;;4.80;;
32295;SDS011;18781;51.550;5.418;2023-05-20T14:39:52;25.05;;;9.93;;
32295;SDS011;18781;51.550;5.418;2023-05-20T14:42:18;27.88;;;11.43;;
32295;SDS011;18781;51.550;5.418;2023-05-20T14:44:43;18.15;;;8.35;;
32295;SDS011;18781;51.550;5.418;2023-05-20T14:47:09;26.77;;;16.58;;
32295;SDS011;18781;51.550;5.418;2023-05-20T14:49:34;28.63;;;17.48;;
32295;SDS011;18781;51.550;5.418;2023-05-20T14:52:03;21.00;;;8.20;;